sensor_id;sensor_type;location;lat;lon;timestamp;temperature;humidity
41256;DHT22;26989;45.524;10.938;2024-01-16T00:01:07;1.40;99.90
41256;DHT22;26989;45.524;10.938;2024-01-16T00:03:34;1.40;99.90
41256;DHT22;26989;45.524;10.938;2024-01-16T00:06:01;1.30;99.90
41256;DHT22;26989;45.524;10.938;2024-01-16T00:08:28;1.30;99.90
41256;DHT22;26989;45.524;10.938;2024-01-16T00:10:55;1.30;99.90
41256;DHT22;26989;45.524;10.938;2024-01-16T00:13:22;1.20;99.90
41256;DHT22;26989;45.524;10.938;2024-01-16T00:15:49;1.20;99.90
41256;DHT22;26989;45.524;10.938;2024-01-16T00:18:16;1.20;99.90
41256;DHT22;26989;45.524;10.938;2024-01-16T00:20:44;1.20;99.90
41256;DHT22;26989;45.524;10.938;2024-01-16T00:23:11;1.20;99.90
41256;DHT22;26989;45.524;10.938;2024-01-16T00:25:37;1.20;99.90
41256;DHT22;26989;45.524;10.938;2024-01-16T00:28:05;1.20;99.90
41256;DHT22;26989;45.524;10.938;2024-01-16T00:30:32;1.20;99.90
41256;DHT22;26989;45.524;10.938;2024-01-16T00:33:00;1.20;99.90
41256;DHT22;26989;45.524;10.938;2024-01-16T00:35:27;1.20;99.90
41256;DHT22;26989;45.524;10.938;2024-01-16T00:37:54;1.30;99.90
41256;DHT22;26989;45.524;10.938;2024-01-16T00:40:21;1.30;99.90
41256;DHT22;26989;45.524;10.938;2024-01-16T00:42:48;1.30;99.90
41256;DHT22;26989;45.524;10.938;2024-01-16T00:45:14;1.30;99.90
41256;DHT22;26989;45.524;10.938;2024-01-16T00:47:41;1.10;99.90
41256;DHT22;26989;45.524;10.938;2024-01-16T00:50:09;1.20;99.90
41256;DHT22;26989;45.524;10.938;2024-01-16T00:52:36;1.10;99.90
41256;DHT22;26989;45.524;10.938;2024-01-16T00:55:03;1.20;99.90
41256;DHT22;26989;45.524;10.938;2024-01-16T00:57:31;1.20;99.90
41256;DHT22;26989;45.524;10.938;2024-01-16T00:59:57;0.90;99.90
41256;DHT22;26989;45.524;10.938;2024-01-16T01:02:24;1.00;99.90
41256;DHT22;26989;45.524;10.938;2024-01-16T01:04:51;1.10;99.90
41256;DHT22;26989;45.524;10.938;2024-01-16T01:07:18;1.00;99.90
41256;DHT22;26989;45.524;10.938;2024-01-16T01:09:45;1.10;99.90
41256;DHT22;26989;45.524;10.938;2024-01-16T01:12:12;1.00;99.90
41256;DHT22;26989;45.524;10.938;2024-01-16T01:14:39;1.20;99.90
41256;DHT22;26989;45.524;10.938;2024-01-16T01:17:06;1.10;99.90
41256;DHT22;26989;45.524;10.938;2024-01-16T01:19:33;1.10;99.90
41256;DHT22;26989;45.524;10.938;2024-01-16T01:22:00;1.20;99.90
41256;DHT22;26989;45.524;10.938;2024-01-16T01:24:27;1.40;99.90
41256;DHT22;26989;45.524;10.938;2024-01-16T01:26:54;1.40;99.90
41256;DHT22;26989;45.524;10.938;2024-01-16T01:29:21;1.40;99.90
41256;DHT22;26989;45.524;10.938;2024-01-16T01:31:48;1.40;99.90
41256;DHT22;26989;45.524;10.938;2024-01-16T01:34:15;1.30;99.90
41256;DHT22;26989;45.524;10.938;2024-01-16T01:36:42;1.40;99.90
41256;DHT22;26989;45.524;10.938;2024-01-16T01:39:10;1.50;99.90
41256;DHT22;26989;45.524;10.938;2024-01-16T01:41:40;1.50;99.90
41256;DHT22;26989;45.524;10.938;2024-01-16T01:44:08;1.50;99.90
41256;DHT22;26989;45.524;10.938;2024-01-16T01:46:42;1.40;99.90
41256;DHT22;26989;45.524;10.938;2024-01-16T01:49:12;1.50;99.90
41256;DHT22;26989;45.524;10.938;2024-01-16T01:51:40;1.50;99.90
41256;DHT22;26989;45.524;10.938;2024-01-16T01:54:07;1.70;99.90
41256;DHT22;26989;45.524;10.938;2024-01-16T01:56:34;1.60;99.90
41256;DHT22;26989;45.524;10.938;2024-01-16T01:59:02;1.50;99.90
41256;DHT22;26989;45.524;10.938;2024-01-16T02:01:31;1.40;99.90
41256;DHT22;26989;45.524;10.938;2024-01-16T02:03:59;1.40;99.90
41256;DHT22;26989;45.524;10.938;2024-01-16T02:06:27;1.50;99.90
41256;DHT22;26989;45.524;10.938;2024-01-16T02:08:54;1.30;99.90
41256;DHT22;26989;45.524;10.938;2024-01-16T02:11:21;1.50;99.90
41256;DHT22;26989;45.524;10.938;2024-01-16T02:13:48;1.50;99.90
41256;DHT22;26989;45.524;10.938;2024-01-16T02:16:21;1.50;99.90
41256;DHT22;26989;45.524;10.938;2024-01-16T02:18:49;1.50;99.90
41256;DHT22;26989;45.524;10.938;2024-01-16T02:21:22;1.60;99.90
41256;DHT22;26989;45.524;10.938;2024-01-16T02:23:49;1.60;99.90
41256;DHT22;26989;45.524;10.938;2024-01-16T02:26:17;1.70;99.90
41256;DHT22;26989;45.524;10.938;2024-01-16T02:28:44;1.60;99.90
41256;DHT22;26989;45.524;10.938;2024-01-16T02:31:11;1.70;99.90
41256;DHT22;26989;45.524;10.938;2024-01-16T02:33:39;1.80;99.90
41256;DHT22;26989;45.524;10.938;2024-01-16T02:36:06;1.70;99.90
41256;DHT22;26989;45.524;10.938;2024-01-16T02:38:33;1.80;99.90
41256;DHT22;26989;45.524;10.938;2024-01-16T02:41:00;1.80;99.90
41256;DHT22;26989;45.524;10.938;2024-01-16T02:43:27;1.80;99.90
41256;DHT22;26989;45.524;10.938;2024-01-16T02:45:54;1.70;99.90
41256;DHT22;26989;45.524;10.938;2024-01-16T02:48:21;1.70;99.90
41256;DHT22;26989;45.524;10.938;2024-01-16T02:50:48;1.60;99.90
41256;DHT22;26989;45.524;10.938;2024-01-16T02:53:15;1.70;99.90
41256;DHT22;26989;45.524;10.938;2024-01-16T02:55:42;1.70;99.90
41256;DHT22;26989;45.524;10.938;2024-01-16T02:58:09;1.70;99.90
41256;DHT22;26989;45.524;10.938;2024-01-16T03:00:36;1.60;99.90
41256;DHT22;26989;45.524;10.938;2024-01-16T03:03:04;1.60;99.90
41256;DHT22;26989;45.524;10.938;2024-01-16T03:05:31;1.60;99.90
41256;DHT22;26989;45.524;10.938;2024-01-16T03:07:58;1.70;99.90
41256;DHT22;26989;45.524;10.938;2024-01-16T03:10:25;1.50;99.90
41256;DHT22;26989;45.524;10.938;2024-01-16T03:12:52;1.50;99.90
41256;DHT22;26989;45.524;10.938;2024-01-16T03:15:19;1.40;99.90
41256;DHT22;26989;45.524;10.938;2024-01-16T03:17:48;1.50;99.90
41256;DHT22;26989;45.524;10.938;2024-01-16T03:20:17;1.50;99.90
41256;DHT22;26989;45.524;10.938;2024-01-16T03:22:44;1.50;99.90
41256;DHT22;26989;45.524;10.938;2024-01-16T03:25:12;1.40;99.90
41256;DHT22;26989;45.524;10.938;2024-01-16T03:27:39;1.20;99.90
41256;DHT22;26989;45.524;10.938;2024-01-16T03:30:06;1.30;99.90
41256;DHT22;26989;45.524;10.938;2024-01-16T03:32:36;1.00;99.90
41256;DHT22;26989;45.524;10.938;2024-01-16T03:35:06;1.30;99.90
41256;DHT22;26989;45.524;10.938;2024-01-16T03:37:33;1.40;99.90
41256;DHT22;26989;45.524;10.938;2024-01-16T03:40:01;1.40;99.90
41256;DHT22;26989;45.524;10.938;2024-01-16T03:42:28;1.60;99.90
41256;DHT22;26989;45.524;10.938;2024-01-16T03:44:55;1.70;99.90
41256;DHT22;26989;45.524;10.938;2024-01-16T03:47:22;1.50;99.90
41256;DHT22;26989;45.524;10.938;2024-01-16T03:49:50;1.50;99.90
41256;DHT22;26989;45.524;10.938;2024-01-16T03:52:17;1.60;99.90
41256;DHT22;26989;45.524;10.938;2024-01-16T03:54:43;1.60;99.90
41256;DHT22;26989;45.524;10.938;2024-01-16T03:57:10;1.60;99.90
41256;DHT22;26989;45.524;10.938;2024-01-16T03:59:37;1.60;99.90
41256;DHT22;26989;45.524;10.938;2024-01-16T04:02:05;1.50;99.90
41256;DHT22;26989;45.524;10.938;2024-01-16T04:04:32;1.30;99.90
41256;DHT22;26989;45.524;10.938;2024-01-16T04:06:59;1.40;99.90
41256;DHT22;26989;45.524;10.938;2024-01-16T04:09:26;1.40;99.90
41256;DHT22;26989;45.524;10.938;2024-01-16T04:11:53;1.30;99.90
41256;DHT22;26989;45.524;10.938;2024-01-16T04:14:20;1.10;99.90
41256;DHT22;26989;45.524;10.938;2024-01-16T04:16:47;1.10;99.90
41256;DHT22;26989;45.524;10.938;2024-01-16T04:19:14;1.10;99.90
41256;DHT22;26989;45.524;10.938;2024-01-16T04:21:41;1.10;99.90
41256;DHT22;26989;45.524;10.938;2024-01-16T04:24:08;1.10;99.90
41256;DHT22;26989;45.524;10.938;2024-01-16T04:26:38;1.10;99.90
41256;DHT22;26989;45.524;10.938;2024-01-16T04:29:05;1.10;99.90
41256;DHT22;26989;45.524;10.938;2024-01-16T04:31:35;1.00;99.90
41256;DHT22;26989;45.524;10.938;2024-01-16T04:34:05;1.00;99.90
41256;DHT22;26989;45.524;10.938;2024-01-16T04:36:32;1.10;99.90
41256;DHT22;26989;45.524;10.938;2024-01-16T04:38:59;1.10;99.90
41256;DHT22;26989;45.524;10.938;2024-01-16T04:41:27;1.00;99.90
41256;DHT22;26989;45.524;10.938;2024-01-16T04:43:54;0.90;99.90
41256;DHT22;26989;45.524;10.938;2024-01-16T04:46:21;1.00;99.90
41256;DHT22;26989;45.524;10.938;2024-01-16T04:48:47;1.10;99.90
41256;DHT22;26989;45.524;10.938;2024-01-16T04:51:15;1.20;99.90
41256;DHT22;26989;45.524;10.938;2024-01-16T04:53:42;1.10;99.90
41256;DHT22;26989;45.524;10.938;2024-01-16T04:56:09;1.10;99.90
41256;DHT22;26989;45.524;10.938;2024-01-16T04:58:35;1.10;99.90
41256;DHT22;26989;45.524;10.938;2024-01-16T05:01:02;1.00;99.90
41256;DHT22;26989;45.524;10.938;2024-01-16T05:03:29;1.10;99.90
41256;DHT22;26989;45.524;10.938;2024-01-16T05:05:56;1.10;99.90
41256;DHT22;26989;45.524;10.938;2024-01-16T05:08:24;1.10;99.90
41256;DHT22;26989;45.524;10.938;2024-01-16T05:10:51;1.00;99.90
41256;DHT22;26989;45.524;10.938;2024-01-16T05:13:18;0.90;99.90
41256;DHT22;26989;45.524;10.938;2024-01-16T05:15:45;1.10;99.90
41256;DHT22;26989;45.524;10.938;2024-01-16T05:18:12;1.00;99.90
41256;DHT22;26989;45.524;10.938;2024-01-16T05:20:39;0.90;99.90
41256;DHT22;26989;45.524;10.938;2024-01-16T05:23:07;1.10;99.90
41256;DHT22;26989;45.524;10.938;2024-01-16T05:25:33;1.00;99.90
41256;DHT22;26989;45.524;10.938;2024-01-16T05:28:00;1.00;99.90
41256;DHT22;26989;45.524;10.938;2024-01-16T05:30:27;0.90;99.90
41256;DHT22;26989;45.524;10.938;2024-01-16T05:32:54;0.90;99.90
41256;DHT22;26989;45.524;10.938;2024-01-16T05:35:22;0.90;99.90
41256;DHT22;26989;45.524;10.938;2024-01-16T05:37:51;0.90;99.90
41256;DHT22;26989;45.524;10.938;2024-01-16T05:40:18;0.90;99.90
41256;DHT22;26989;45.524;10.938;2024-01-16T05:42:45;0.90;99.90
41256;DHT22;26989;45.524;10.938;2024-01-16T05:45:12;0.90;99.90
41256;DHT22;26989;45.524;10.938;2024-01-16T05:47:40;0.80;99.90
41256;DHT22;26989;45.524;10.938;2024-01-16T05:50:07;0.80;99.90
41256;DHT22;26989;45.524;10.938;2024-01-16T05:52:36;0.80;99.90
41256;DHT22;26989;45.524;10.938;2024-01-16T05:55:04;0.60;99.90
41256;DHT22;26989;45.524;10.938;2024-01-16T05:57:31;0.70;99.90
41256;DHT22;26989;45.524;10.938;2024-01-16T06:00:00;0.90;99.90
41256;DHT22;26989;45.524;10.938;2024-01-16T06:02:30;0.90;99.90
41256;DHT22;26989;45.524;10.938;2024-01-16T06:04:59;0.80;99.90
41256;DHT22;26989;45.524;10.938;2024-01-16T06:07:26;0.90;99.90
41256;DHT22;26989;45.524;10.938;2024-01-16T06:09:53;0.90;99.90
41256;DHT22;26989;45.524;10.938;2024-01-16T06:12:20;1.00;99.90
41256;DHT22;26989;45.524;10.938;2024-01-16T06:14:47;0.90;99.90
41256;DHT22;26989;45.524;10.938;2024-01-16T06:17:14;0.80;99.90
41256;DHT22;26989;45.524;10.938;2024-01-16T06:19:40;1.00;99.90
41256;DHT22;26989;45.524;10.938;2024-01-16T06:22:07;0.90;99.90
41256;DHT22;26989;45.524;10.938;2024-01-16T06:24:36;0.90;99.90
41256;DHT22;26989;45.524;10.938;2024-01-16T06:27:07;1.10;99.90
41256;DHT22;26989;45.524;10.938;2024-01-16T06:29:34;1.00;99.90
41256;DHT22;26989;45.524;10.938;2024-01-16T06:32:04;0.90;99.90
41256;DHT22;26989;45.524;10.938;2024-01-16T06:34:31;1.00;99.90
41256;DHT22;26989;45.524;10.938;2024-01-16T06:36:58;1.00;99.90
41256;DHT22;26989;45.524;10.938;2024-01-16T06:39:26;1.00;99.90
41256;DHT22;26989;45.524;10.938;2024-01-16T06:41:53;1.10;99.90
41256;DHT22;26989;45.524;10.938;2024-01-16T06:44:20;1.00;99.90
41256;DHT22;26989;45.524;10.938;2024-01-16T06:46:46;1.00;99.90
41256;DHT22;26989;45.524;10.938;2024-01-16T06:49:14;1.00;99.90
41256;DHT22;26989;45.524;10.938;2024-01-16T06:51:41;1.00;99.90
41256;DHT22;26989;45.524;10.938;2024-01-16T06:54:08;1.00;99.90
41256;DHT22;26989;45.524;10.938;2024-01-16T06:56:35;1.10;99.90
41256;DHT22;26989;45.524;10.938;2024-01-16T06:59:02;1.10;99.90
41256;DHT22;26989;45.524;10.938;2024-01-16T07:01:29;1.20;99.90
41256;DHT22;26989;45.524;10.938;2024-01-16T07:03:56;1.20;99.90
41256;DHT22;26989;45.524;10.938;2024-01-16T07:06:35;1.20;99.90
41256;DHT22;26989;45.524;10.938;2024-01-16T07:09:02;1.30;99.90
41256;DHT22;26989;45.524;10.938;2024-01-16T07:11:32;1.40;99.90
41256;DHT22;26989;45.524;10.938;2024-01-16T07:13:59;1.40;99.90
41256;DHT22;26989;45.524;10.938;2024-01-16T07:16:26;1.40;99.90
41256;DHT22;26989;45.524;10.938;2024-01-16T07:18:54;1.50;99.90
41256;DHT22;26989;45.524;10.938;2024-01-16T07:21:22;1.50;99.90
41256;DHT22;26989;45.524;10.938;2024-01-16T07:23:49;1.70;99.90
41256;DHT22;26989;45.524;10.938;2024-01-16T07:26:16;1.90;99.90
41256;DHT22;26989;45.524;10.938;2024-01-16T07:28:43;1.90;99.90
41256;DHT22;26989;45.524;10.938;2024-01-16T07:31:10;1.80;99.90
41256;DHT22;26989;45.524;10.938;2024-01-16T07:33:39;1.70;99.90
41256;DHT22;26989;45.524;10.938;2024-01-16T07:36:07;1.90;99.90
41256;DHT22;26989;45.524;10.938;2024-01-16T07:38:36;2.00;99.90
41256;DHT22;26989;45.524;10.938;2024-01-16T07:41:04;2.20;99.90
41256;DHT22;26989;45.524;10.938;2024-01-16T07:43:31;2.20;99.90
41256;DHT22;26989;45.524;10.938;2024-01-16T07:46:00;2.50;99.90
41256;DHT22;26989;45.524;10.938;2024-01-16T07:48:38;2.60;99.90
41256;DHT22;26989;45.524;10.938;2024-01-16T07:51:08;2.90;99.90
41256;DHT22;26989;45.524;10.938;2024-01-16T07:53:37;3.20;99.90
41256;DHT22;26989;45.524;10.938;2024-01-16T07:56:04;3.40;99.90
41256;DHT22;26989;45.524;10.938;2024-01-16T07:58:31;3.60;99.90
41256;DHT22;26989;45.524;10.938;2024-01-16T08:00:58;3.70;99.90
41256;DHT22;26989;45.524;10.938;2024-01-16T08:03:25;3.50;99.90
41256;DHT22;26989;45.524;10.938;2024-01-16T08:05:53;3.20;99.90
41256;DHT22;26989;45.524;10.938;2024-01-16T08:08:20;3.00;99.90
41256;DHT22;26989;45.524;10.938;2024-01-16T08:10:47;2.90;99.90
41256;DHT22;26989;45.524;10.938;2024-01-16T08:13:14;2.80;99.90
41256;DHT22;26989;45.524;10.938;2024-01-16T08:15:41;2.80;99.90
41256;DHT22;26989;45.524;10.938;2024-01-16T08:18:10;3.10;99.90
41256;DHT22;26989;45.524;10.938;2024-01-16T08:20:37;3.10;99.90
41256;DHT22;26989;45.524;10.938;2024-01-16T08:23:04;3.10;99.90
41256;DHT22;26989;45.524;10.938;2024-01-16T08:25:31;3.10;99.90
41256;DHT22;26989;45.524;10.938;2024-01-16T08:27:58;2.90;99.90
41256;DHT22;26989;45.524;10.938;2024-01-16T08:30:35;3.00;99.90
41256;DHT22;26989;45.524;10.938;2024-01-16T08:33:03;3.00;99.90
41256;DHT22;26989;45.524;10.938;2024-01-16T08:35:30;2.90;99.90
41256;DHT22;26989;45.524;10.938;2024-01-16T08:37:57;2.80;99.90
41256;DHT22;26989;45.524;10.938;2024-01-16T08:40:24;2.70;99.90
41256;DHT22;26989;45.524;10.938;2024-01-16T08:42:51;2.80;99.90
41256;DHT22;26989;45.524;10.938;2024-01-16T08:45:24;2.90;99.90
41256;DHT22;26989;45.524;10.938;2024-01-16T08:47:52;3.00;99.90
41256;DHT22;26989;45.524;10.938;2024-01-16T08:50:20;3.00;99.90
41256;DHT22;26989;45.524;10.938;2024-01-16T08:52:47;3.10;99.90
41256;DHT22;26989;45.524;10.938;2024-01-16T08:55:13;3.10;99.90
41256;DHT22;26989;45.524;10.938;2024-01-16T08:57:40;3.20;99.90
41256;DHT22;26989;45.524;10.938;2024-01-16T09:00:08;3.20;99.90
41256;DHT22;26989;45.524;10.938;2024-01-16T09:02:36;3.20;99.90
41256;DHT22;26989;45.524;10.938;2024-01-16T09:05:03;3.10;99.90
41256;DHT22;26989;45.524;10.938;2024-01-16T09:07:31;3.00;99.90
41256;DHT22;26989;45.524;10.938;2024-01-16T09:09:58;3.00;99.90
41256;DHT22;26989;45.524;10.938;2024-01-16T09:12:25;2.90;99.90
41256;DHT22;26989;45.524;10.938;2024-01-16T09:14:53;2.80;99.90
41256;DHT22;26989;45.524;10.938;2024-01-16T09:17:20;2.70;99.90
41256;DHT22;26989;45.524;10.938;2024-01-16T09:19:47;2.60;99.90
41256;DHT22;26989;45.524;10.938;2024-01-16T09:22:14;2.60;99.90
41256;DHT22;26989;45.524;10.938;2024-01-16T09:24:43;2.60;99.90
41256;DHT22;26989;45.524;10.938;2024-01-16T09:27:10;2.60;99.90
41256;DHT22;26989;45.524;10.938;2024-01-16T09:29:37;2.90;99.90
41256;DHT22;26989;45.524;10.938;2024-01-16T09:32:05;3.00;99.90
41256;DHT22;26989;45.524;10.938;2024-01-16T09:34:35;3.10;99.90
41256;DHT22;26989;45.524;10.938;2024-01-16T09:37:02;3.30;99.90
41256;DHT22;26989;45.524;10.938;2024-01-16T09:39:30;3.40;99.90
41256;DHT22;26989;45.524;10.938;2024-01-16T09:41:59;3.50;99.90
41256;DHT22;26989;45.524;10.938;2024-01-16T09:44:28;3.60;99.90
41256;DHT22;26989;45.524;10.938;2024-01-16T09:46:58;3.60;99.90
41256;DHT22;26989;45.524;10.938;2024-01-16T09:49:26;3.60;99.90
41256;DHT22;26989;45.524;10.938;2024-01-16T09:51:54;3.50;99.90
41256;DHT22;26989;45.524;10.938;2024-01-16T09:54:21;3.60;99.90
41256;DHT22;26989;45.524;10.938;2024-01-16T09:56:51;3.80;99.90
41256;DHT22;26989;45.524;10.938;2024-01-16T09:59:18;3.90;99.90
41256;DHT22;26989;45.524;10.938;2024-01-16T10:01:49;4.10;99.90
41256;DHT22;26989;45.524;10.938;2024-01-16T10:04:18;4.20;99.90
41256;DHT22;26989;45.524;10.938;2024-01-16T10:06:45;4.60;99.90
41256;DHT22;26989;45.524;10.938;2024-01-16T10:09:15;4.60;99.90
41256;DHT22;26989;45.524;10.938;2024-01-16T10:11:43;4.70;99.90
41256;DHT22;26989;45.524;10.938;2024-01-16T10:14:10;4.80;99.90
41256;DHT22;26989;45.524;10.938;2024-01-16T10:17:00;4.90;99.90
41256;DHT22;26989;45.524;10.938;2024-01-16T10:19:33;5.00;99.90
41256;DHT22;26989;45.524;10.938;2024-01-16T10:22:22;5.10;99.90
41256;DHT22;26989;45.524;10.938;2024-01-16T10:25:13;5.20;99.90
41256;DHT22;26989;45.524;10.938;2024-01-16T10:27:44;5.30;99.90
41256;DHT22;26989;45.524;10.938;2024-01-16T10:30:14;5.30;99.90
41256;DHT22;26989;45.524;10.938;2024-01-16T10:32:42;5.40;99.90
41256;DHT22;26989;45.524;10.938;2024-01-16T10:35:12;5.40;99.90
41256;DHT22;26989;45.524;10.938;2024-01-16T10:37:47;5.30;99.90
41256;DHT22;26989;45.524;10.938;2024-01-16T10:40:22;5.50;99.90
41256;DHT22;26989;45.524;10.938;2024-01-16T10:43:03;5.60;99.90
41256;DHT22;26989;45.524;10.938;2024-01-16T10:45:32;5.50;99.90
41256;DHT22;26989;45.524;10.938;2024-01-16T10:48:06;5.50;99.90
41256;DHT22;26989;45.524;10.938;2024-01-16T10:50:36;5.50;99.90
41256;DHT22;26989;45.524;10.938;2024-01-16T10:53:08;5.70;99.90
41256;DHT22;26989;45.524;10.938;2024-01-16T10:55:56;5.70;99.90
41256;DHT22;26989;45.524;10.938;2024-01-16T10:58:24;5.90;99.90
41256;DHT22;26989;45.524;10.938;2024-01-16T11:00:57;5.90;99.90
41256;DHT22;26989;45.524;10.938;2024-01-16T11:03:34;6.00;99.90
41256;DHT22;26989;45.524;10.938;2024-01-16T11:06:05;6.00;99.90
41256;DHT22;26989;45.524;10.938;2024-01-16T11:08:36;6.10;99.90
41256;DHT22;26989;45.524;10.938;2024-01-16T11:11:04;6.30;99.90
41256;DHT22;26989;45.524;10.938;2024-01-16T11:13:33;6.20;99.90
41256;DHT22;26989;45.524;10.938;2024-01-16T11:16:04;6.10;99.90
41256;DHT22;26989;45.524;10.938;2024-01-16T11:18:33;6.10;99.90
41256;DHT22;26989;45.524;10.938;2024-01-16T11:21:01;6.10;99.90
41256;DHT22;26989;45.524;10.938;2024-01-16T11:23:36;6.10;99.90
41256;DHT22;26989;45.524;10.938;2024-01-16T11:26:27;6.10;99.90
41256;DHT22;26989;45.524;10.938;2024-01-16T11:28:56;6.10;99.90
41256;DHT22;26989;45.524;10.938;2024-01-16T11:31:33;6.10;99.90
41256;DHT22;26989;45.524;10.938;2024-01-16T11:34:02;6.10;99.90
41256;DHT22;26989;45.524;10.938;2024-01-16T11:36:43;6.20;99.90
41256;DHT22;26989;45.524;10.938;2024-01-16T11:39:23;6.30;99.90
41256;DHT22;26989;45.524;10.938;2024-01-16T11:41:57;6.30;99.90
41256;DHT22;26989;45.524;10.938;2024-01-16T11:44:38;6.50;99.90
41256;DHT22;26989;45.524;10.938;2024-01-16T11:47:05;6.50;99.90
41256;DHT22;26989;45.524;10.938;2024-01-16T11:49:37;6.40;99.90
41256;DHT22;26989;45.524;10.938;2024-01-16T11:52:04;6.40;99.90
41256;DHT22;26989;45.524;10.938;2024-01-16T11:54:33;6.40;99.90
41256;DHT22;26989;45.524;10.938;2024-01-16T12:00:04;6.50;99.90
41256;DHT22;26989;45.524;10.938;2024-01-16T12:02:52;6.50;99.90
41256;DHT22;26989;45.524;10.938;2024-01-16T12:05:21;6.50;99.90
41256;DHT22;26989;45.524;10.938;2024-01-16T12:07:49;6.60;99.90
41256;DHT22;26989;45.524;10.938;2024-01-16T12:10:18;6.70;99.90
41256;DHT22;26989;45.524;10.938;2024-01-16T12:12:47;6.70;99.90
41256;DHT22;26989;45.524;10.938;2024-01-16T12:15:18;6.70;99.90
41256;DHT22;26989;45.524;10.938;2024-01-16T12:18:06;6.70;99.90
41256;DHT22;26989;45.524;10.938;2024-01-16T12:20:45;6.70;99.90
41256;DHT22;26989;45.524;10.938;2024-01-16T12:23:13;6.90;99.90
41256;DHT22;26989;45.524;10.938;2024-01-16T12:25:40;7.00;99.90
41256;DHT22;26989;45.524;10.938;2024-01-16T12:28:28;7.00;99.90
41256;DHT22;26989;45.524;10.938;2024-01-16T12:30:59;7.00;99.90
41256;DHT22;26989;45.524;10.938;2024-01-16T12:33:28;7.10;99.90
41256;DHT22;26989;45.524;10.938;2024-01-16T12:36:03;7.30;99.90
41256;DHT22;26989;45.524;10.938;2024-01-16T12:38:32;7.20;99.90
41256;DHT22;26989;45.524;10.938;2024-01-16T12:40:59;7.30;99.90
41256;DHT22;26989;45.524;10.938;2024-01-16T12:43:31;7.40;99.90
41256;DHT22;26989;45.524;10.938;2024-01-16T12:45:58;7.50;99.90
41256;DHT22;26989;45.524;10.938;2024-01-16T12:48:26;7.60;99.90
41256;DHT22;26989;45.524;10.938;2024-01-16T12:51:03;7.80;99.90
41256;DHT22;26989;45.524;10.938;2024-01-16T12:53:32;7.80;99.90
41256;DHT22;26989;45.524;10.938;2024-01-16T12:56:01;7.80;99.90
41256;DHT22;26989;45.524;10.938;2024-01-16T12:58:33;7.90;99.90
41256;DHT22;26989;45.524;10.938;2024-01-16T13:01:25;8.20;99.90
41256;DHT22;26989;45.524;10.938;2024-01-16T13:04:06;8.10;99.90
41256;DHT22;26989;45.524;10.938;2024-01-16T13:06:33;8.20;99.90
41256;DHT22;26989;45.524;10.938;2024-01-16T13:09:05;8.30;99.90
41256;DHT22;26989;45.524;10.938;2024-01-16T13:14:19;8.50;99.90
41256;DHT22;26989;45.524;10.938;2024-01-16T13:16:49;8.70;99.90
41256;DHT22;26989;45.524;10.938;2024-01-16T13:19:20;8.90;99.90
41256;DHT22;26989;45.524;10.938;2024-01-16T13:21:49;8.90;99.90
41256;DHT22;26989;45.524;10.938;2024-01-16T13:24:16;8.80;99.90
41256;DHT22;26989;45.524;10.938;2024-01-16T13:26:50;8.90;99.90
41256;DHT22;26989;45.524;10.938;2024-01-16T13:29:17;8.90;99.90
41256;DHT22;26989;45.524;10.938;2024-01-16T13:31:46;9.00;99.90
41256;DHT22;26989;45.524;10.938;2024-01-16T13:34:12;8.90;99.90
41256;DHT22;26989;45.524;10.938;2024-01-16T13:36:41;8.80;99.90
41256;DHT22;26989;45.524;10.938;2024-01-16T13:39:32;8.70;99.90
41256;DHT22;26989;45.524;10.938;2024-01-16T13:42:07;8.80;99.90
41256;DHT22;26989;45.524;10.938;2024-01-16T13:44:34;8.70;99.90
41256;DHT22;26989;45.524;10.938;2024-01-16T13:47:01;8.80;99.90
41256;DHT22;26989;45.524;10.938;2024-01-16T13:49:37;8.70;99.90
41256;DHT22;26989;45.524;10.938;2024-01-16T13:52:05;8.80;99.90
41256;DHT22;26989;45.524;10.938;2024-01-16T13:54:35;8.80;99.90
41256;DHT22;26989;45.524;10.938;2024-01-16T13:57:02;8.70;99.90
41256;DHT22;26989;45.524;10.938;2024-01-16T13:59:35;8.80;99.90
41256;DHT22;26989;45.524;10.938;2024-01-16T14:02:03;8.80;99.90
41256;DHT22;26989;45.524;10.938;2024-01-16T14:04:32;8.90;99.90
41256;DHT22;26989;45.524;10.938;2024-01-16T14:06:59;8.90;99.90
41256;DHT22;26989;45.524;10.938;2024-01-16T14:09:33;8.90;99.90
41256;DHT22;26989;45.524;10.938;2024-01-16T14:12:00;8.90;99.90
41256;DHT22;26989;45.524;10.938;2024-01-16T14:14:28;8.80;99.90
41256;DHT22;26989;45.524;10.938;2024-01-16T14:16:55;8.80;99.90
41256;DHT22;26989;45.524;10.938;2024-01-16T14:19:28;8.80;99.90
41256;DHT22;26989;45.524;10.938;2024-01-16T14:21:57;8.80;99.90
41256;DHT22;26989;45.524;10.938;2024-01-16T14:24:25;8.80;99.90
41256;DHT22;26989;45.524;10.938;2024-01-16T14:26:52;8.70;99.90
41256;DHT22;26989;45.524;10.938;2024-01-16T14:29:19;8.70;99.90
41256;DHT22;26989;45.524;10.938;2024-01-16T14:31:47;8.70;99.90
41256;DHT22;26989;45.524;10.938;2024-01-16T14:34:17;8.60;99.90
41256;DHT22;26989;45.524;10.938;2024-01-16T14:36:46;8.60;99.90
41256;DHT22;26989;45.524;10.938;2024-01-16T14:39:13;8.50;99.90
41256;DHT22;26989;45.524;10.938;2024-01-16T14:41:45;8.50;99.90
41256;DHT22;26989;45.524;10.938;2024-01-16T14:44:17;8.50;99.90
41256;DHT22;26989;45.524;10.938;2024-01-16T14:46:47;8.40;99.90
41256;DHT22;26989;45.524;10.938;2024-01-16T14:49:18;8.30;99.90
41256;DHT22;26989;45.524;10.938;2024-01-16T14:51:45;8.30;99.90
41256;DHT22;26989;45.524;10.938;2024-01-16T14:54:13;8.20;99.90
41256;DHT22;26989;45.524;10.938;2024-01-16T14:56:40;8.10;99.90
41256;DHT22;26989;45.524;10.938;2024-01-16T14:59:10;8.00;99.90
41256;DHT22;26989;45.524;10.938;2024-01-16T15:01:41;7.90;99.90
41256;DHT22;26989;45.524;10.938;2024-01-16T15:04:11;7.80;99.90
41256;DHT22;26989;45.524;10.938;2024-01-16T15:06:46;7.60;99.90
41256;DHT22;26989;45.524;10.938;2024-01-16T15:09:27;7.30;99.90
41256;DHT22;26989;45.524;10.938;2024-01-16T15:11:54;7.10;99.90
41256;DHT22;26989;45.524;10.938;2024-01-16T15:14:21;6.90;99.90
41256;DHT22;26989;45.524;10.938;2024-01-16T15:16:48;6.80;99.90
41256;DHT22;26989;45.524;10.938;2024-01-16T15:19:15;6.60;99.90
41256;DHT22;26989;45.524;10.938;2024-01-16T15:21:43;6.40;99.90
41256;DHT22;26989;45.524;10.938;2024-01-16T15:24:13;6.60;99.90
41256;DHT22;26989;45.524;10.938;2024-01-16T15:27:00;6.40;99.90
41256;DHT22;26989;45.524;10.938;2024-01-16T15:29:27;6.30;99.90
41256;DHT22;26989;45.524;10.938;2024-01-16T15:31:54;6.10;99.90
41256;DHT22;26989;45.524;10.938;2024-01-16T15:34:21;6.00;99.90
41256;DHT22;26989;45.524;10.938;2024-01-16T15:36:49;5.90;99.90
41256;DHT22;26989;45.524;10.938;2024-01-16T15:39:15;5.80;99.90
41256;DHT22;26989;45.524;10.938;2024-01-16T15:41:43;5.90;99.90
41256;DHT22;26989;45.524;10.938;2024-01-16T15:44:11;5.60;99.90
41256;DHT22;26989;45.524;10.938;2024-01-16T15:47:00;5.70;99.90